Time;durP1;ratioP1;P1;durP2;ratioP2;P2;SDS_P1;SDS_P2;PMS_P1;PMS_P2;Temp;Humidity;BMP_temperature;BMP_pressure;BME280_temperature;BME280_humidity;BME280_pressure;Samples;Min_cycle;Max_cycle;Signal;HPM_P1;HPM_P2
2023/06/27 00:02:13;;;;;;;3.10;1.23;;;25.50;1.00;;;;;;4935610;29;20044;-52
2023/06/27 00:04:40;;;;;;;2.78;0.70;;;25.50;1.00;;;;;;4937046;29;20400;-58
2023/06/27 00:07:10;;;;;;;1.50;0.80;;;25.60;1.00;;;;;;4937231;29;20373;-51
2023/06/27 00:09:38;;;;;;;1.10;0.60;;;25.50;1.00;;;;;;4937073;29;20507;-57
2023/06/27 00:12:07;;;;;;;4.30;1.30;;;25.50;1.00;;;;;;4936960;29;20044;-53
2023/06/27 00:14:37;;;;;;;10.93;1.38;;;25.50;1.00;;;;;;4936672;29;20050;-57
2023/06/27 00:17:07;;;;;;;3.75;0.93;;;25.50;1.00;;;;;;4937029;29;20103;-53
2023/06/27 00:19:34;;;;;;;2.30;0.77;;;25.50;1.00;;;;;;4936887;29;20069;-53
2023/06/27 00:22:09;;;;;;;2.58;0.90;;;25.50;1.00;;;;;;4936818;29;20036;-54
2023/06/27 00:24:36;;;;;;;1.20;0.60;;;25.50;1.00;;;;;;4936651;29;20062;-57
2023/06/27 00:27:04;;;;;;;2.03;0.95;;;25.50;1.00;;;;;;4937060;29;20484;-53
2023/06/27 00:29:34;;;;;;;2.97;0.73;;;25.50;1.00;;;;;;4937086;29;20078;-58
2023/06/27 00:32:01;;;;;;;2.47;1.00;;;25.50;1.00;;;;;;4918613;29;20044;-52
2023/06/27 00:34:29;;;;;;;3.65;1.08;;;25.50;1.00;;;;;;4936337;29;20047;-55
2023/06/27 00:36:55;;;;;;;1.75;0.85;;;25.50;1.00;;;;;;4919769;29;20050;-54
2023/06/27 00:39:22;;;;;;;5.50;1.10;;;25.50;1.00;;;;;;4919446;29;20070;-52
2023/06/27 00:41:50;;;;;;;3.53;1.35;;;25.50;1.00;;;;;;4919227;29;20126;-56
2023/06/27 00:44:17;;;;;;;3.03;0.68;;;25.50;1.00;;;;;;4936209;29;20066;-56
2023/06/27 00:46:48;;;;;;;4.82;0.90;;;25.50;1.00;;;;;;4919846;29;20451;-52
2023/06/27 00:49:17;;;;;;;4.53;0.90;;;25.50;1.00;;;;;;4919322;29;20048;-53
2023/06/27 00:51:48;;;;;;;4.53;0.80;;;25.50;1.00;;;;;;4936284;29;20054;-52
2023/06/27 00:54:17;;;;;;;5.80;1.20;;;25.40;1.00;;;;;;4936120;29;20066;-56
2023/06/27 00:56:46;;;;;;;2.03;0.73;;;25.40;1.00;;;;;;4919373;29;20167;-54
2023/06/27 00:59:13;;;;;;;3.63;0.77;;;25.40;1.00;;;;;;4919063;29;20138;-55
2023/06/27 01:01:40;;;;;;;5.55;1.25;;;25.40;1.00;;;;;;5322858;23;20131;-56
2023/06/27 01:04:07;;;;;;;3.22;1.50;;;25.40;1.00;;;;;;4896637;29;20049;-54
2023/06/27 01:06:38;;;;;;;2.15;0.80;;;25.40;1.00;;;;;;4898334;29;20044;-57
2023/06/27 01:09:34;;;;;;;2.75;1.15;;;25.40;1.00;;;;;;4898142;29;20501;-55
2023/06/27 01:12:13;;;;;;;1.80;0.73;;;25.40;1.00;;;;;;4882464;29;20040;-53
2023/06/27 01:14:43;;;;;;;4.88;1.15;;;25.40;1.00;;;;;;4879071;29;20401;-54
2023/06/27 01:17:10;;;;;;;1.75;0.60;;;25.40;1.00;;;;;;4878243;29;20044;-56
2023/06/27 01:19:37;;;;;;;7.68;1.20;;;25.40;1.00;;;;;;4877671;29;20554;-54
2023/06/27 01:22:08;;;;;;;5.72;0.90;;;25.40;1.00;;;;;;4877739;29;20553;-55
2023/06/27 01:24:36;;;;;;;3.25;1.05;;;25.40;1.00;;;;;;4878991;29;20053;-53
2023/06/27 01:27:04;;;;;;;2.63;1.15;;;25.40;1.00;;;;;;4879133;29;20048;-55
2023/06/27 01:29:32;;;;;;;5.10;1.45;;;25.40;1.00;;;;;;4879064;29;20048;-56
2023/06/27 01:32:07;;;;;;;2.63;0.77;;;25.40;1.00;;;;;;4877574;29;20041;-57
2023/06/27 01:35:12;;;;;;;5.10;0.95;;;25.30;1.00;;;;;;4976290;24;20048;-56
2023/06/27 01:37:45;;;;;;;4.20;1.00;;;25.40;1.00;;;;;;4875617;29;20156;-56
2023/06/27 01:40:17;;;;;;;3.30;1.08;;;25.40;1.00;;;;;;4896872;29;20045;-55
2023/06/27 01:42:49;;;;;;;11.52;2.20;;;25.40;1.00;;;;;;4915926;29;20036;-52
2023/06/27 01:45:17;;;;;;;7.35;1.67;;;25.30;1.00;;;;;;4915757;29;20082;-56
2023/06/27 01:47:44;;;;;;;1.67;0.68;;;25.30;1.00;;;;;;4908713;29;20052;-52
2023/06/27 01:50:12;;;;;;;1.88;0.75;;;25.30;1.00;;;;;;4932356;29;20403;-51
2023/06/27 01:52:40;;;;;;;2.55;0.70;;;25.30;1.00;;;;;;4935223;29;20044;-56
2023/06/27 01:55:08;;;;;;;4.32;1.08;;;25.30;1.00;;;;;;4934942;29;20455;-51
2023/06/27 01:57:36;;;;;;;4.30;0.70;;;25.30;1.00;;;;;;4935140;29;20039;-50
2023/06/27 02:00:05;;;;;;;3.13;1.00;;;25.30;1.00;;;;;;4918100;29;20036;-53
2023/06/27 02:02:41;;;;;;;2.63;1.00;;;25.30;1.00;;;;;;4935343;29;21342;-53
2023/06/27 02:05:08;;;;;;;2.40;0.80;;;25.30;1.00;;;;;;5018699;23;20060;-55
2023/06/27 02:07:35;;;;;;;2.22;0.70;;;25.30;1.00;;;;;;4878290;29;20049;-54
2023/06/27 02:10:02;;;;;;;4.88;0.77;;;25.30;1.00;;;;;;4878347;29;20092;-56
2023/06/27 02:12:29;;;;;;;4.28;1.00;;;25.30;1.00;;;;;;4878271;29;20045;-56
2023/06/27 02:14:56;;;;;;;2.30;1.00;;;25.30;1.00;;;;;;4876784;29;20089;-53
2023/06/27 02:17:23;;;;;;;5.63;0.90;;;25.30;1.00;;;;;;4877004;29;20093;-55
2023/06/27 02:19:50;;;;;;;3.92;0.90;;;25.30;1.00;;;;;;4876933;29;20564;-54
2023/06/27 02:22:17;;;;;;;2.45;0.70;;;25.30;1.00;;;;;;4877998;29;20047;-53
2023/06/27 02:24:44;;;;;;;1.95;0.90;;;25.30;1.00;;;;;;4877963;29;20131;-54
2023/06/27 02:27:12;;;;;;;3.13;0.80;;;25.20;1.00;;;;;;4876934;29;20471;-56
2023/06/27 02:29:39;;;;;;;3.42;1.23;;;25.20;1.00;;;;;;4876758;29;20072;-55
2023/06/27 02:32:06;;;;;;;2.35;0.80;;;25.20;1.00;;;;;;4878005;29;20049;-57
2023/06/27 02:34:34;;;;;;;1.88;0.95;;;25.20;1.00;;;;;;4987599;23;20083;-56
2023/06/27 02:37:01;;;;;;;3.85;0.90;;;25.20;1.00;;;;;;4896934;29;20111;-57
2023/06/27 02:39:28;;;;;;;3.38;0.95;;;25.20;1.00;;;;;;4896941;29;20064;-56
2023/06/27 02:41:55;;;;;;;2.30;1.25;;;25.20;1.00;;;;;;4881856;29;20044;-56
2023/06/27 02:44:22;;;;;;;3.50;0.98;;;25.20;1.00;;;;;;4874970;29;20498;-57
2023/06/27 02:46:51;;;;;;;5.43;1.45;;;25.20;1.00;;;;;;4871462;29;20052;-56
2023/06/27 02:49:18;;;;;;;5.78;1.60;;;25.20;1.00;;;;;;4878115;29;20035;-56
2023/06/27 02:51:45;;;;;;;1.92;0.65;;;25.20;1.00;;;;;;4877825;29;20045;-56
2023/06/27 02:54:12;;;;;;;1.30;0.65;;;25.20;1.00;;;;;;4873840;29;20490;-55
2023/06/27 02:56:39;;;;;;;5.15;0.98;;;25.10;1.00;;;;;;4873718;29;20056;-57
2023/06/27 02:59:06;;;;;;;2.47;1.13;;;25.10;1.00;;;;;;4880639;29;20144;-55
2023/06/27 03:01:33;;;;;;;4.30;0.85;;;25.10;1.00;;;;;;4880268;29;20105;-55
2023/06/27 03:04:02;;;;;;;3.85;1.48;;;25.10;1.00;;;;;;4880267;29;20049;-57
2023/06/27 03:06:35;;;;;;;0.85;0.40;;;25.10;1.00;;;;;;4880452;29;20045;-54
2023/06/27 03:09:04;;;;;;;2.67;0.75;;;25.10;1.00;;;;;;4880467;29;20051;-57
2023/06/27 03:11:31;;;;;;;3.47;0.90;;;25.10;1.00;;;;;;4880119;29;20053;-53
2023/06/27 03:13:59;;;;;;;2.97;0.60;;;25.10;1.00;;;;;;4874695;29;20410;-55
2023/06/27 03:16:26;;;;;;;4.68;0.70;;;25.10;1.00;;;;;;4879541;29;20071;-53
2023/06/27 03:18:52;;;;;;;2.97;0.75;;;25.10;1.00;;;;;;4881414;29;20041;-56
2023/06/27 03:21:19;;;;;;;2.28;0.88;;;25.10;1.00;;;;;;4877641;29;20052;-51
2023/06/27 03:23:46;;;;;;;2.78;0.70;;;25.10;1.00;;;;;;4873697;29;20053;-55
2023/06/27 03:26:13;;;;;;;4.07;1.50;;;25.10;1.00;;;;;;4881308;29;20037;-57
2023/06/27 03:28:40;;;;;;;2.83;1.35;;;25.10;1.00;;;;;;4873346;29;20408;-52
2023/06/27 03:31:07;;;;;;;2.30;1.15;;;25.10;1.00;;;;;;4879827;29;20064;-54
2023/06/27 03:33:34;;;;;;;2.08;0.85;;;25.10;1.00;;;;;;4880782;29;20490;-57
2023/06/27 03:36:01;;;;;;;3.78;0.82;;;25.00;1.00;;;;;;5285877;23;20143;-54
2023/06/27 03:38:27;;;;;;;3.05;0.63;;;25.00;1.00;;;;;;4896354;29;20072;-53
2023/06/27 03:40:56;;;;;;;1.50;0.65;;;25.00;1.00;;;;;;4882775;29;20046;-54
2023/06/27 03:43:24;;;;;;;0.80;0.40;;;25.00;1.00;;;;;;4882482;29;20052;-54
2023/06/27 03:45:50;;;;;;;3.13;0.60;;;25.00;1.00;;;;;;4882817;29;20441;-54
2023/06/27 03:48:17;;;;;;;1.42;0.80;;;25.00;1.00;;;;;;4899739;29;20096;-53
2023/06/27 03:50:44;;;;;;;2.20;0.50;;;25.00;1.00;;;;;;4899247;29;20052;-56
2023/06/27 03:53:11;;;;;;;3.78;0.82;;;25.00;1.00;;;;;;4882463;29;20068;-56
2023/06/27 03:55:40;;;;;;;2.65;0.80;;;25.00;1.00;;;;;;4882428;29;20049;-56
2023/06/27 03:58:08;;;;;;;1.25;0.50;;;24.90;1.00;;;;;;4882532;29;20048;-55
2023/06/27 04:00:36;;;;;;;2.13;0.68;;;25.00;1.00;;;;;;4882357;29;20125;-57
2023/06/27 04:03:03;;;;;;;1.55;0.70;;;25.00;1.00;;;;;;4882224;29;20048;-58
2023/06/27 04:05:30;;;;;;;2.20;0.57;;;25.00;1.00;;;;;;4882133;29;20525;-53
2023/06/27 04:07:57;;;;;;;1.42;0.82;;;25.00;1.00;;;;;;4910619;23;20124;-54
2023/06/27 04:10:24;;;;;;;1.90;0.45;;;25.00;1.00;;;;;;4871668;29;20097;-53
2023/06/27 04:12:53;;;;;;;3.90;0.75;;;24.90;1.00;;;;;;4884504;29;20501;-52
2023/06/27 04:15:20;;;;;;;2.75;0.93;;;24.90;1.00;;;;;;4890302;29;20055;-56
2023/06/27 04:17:46;;;;;;;4.35;1.13;;;24.90;1.00;;;;;;4884739;29;20049;-54
2023/06/27 04:20:13;;;;;;;2.38;0.70;;;24.90;1.00;;;;;;4897376;29;20390;-50
2023/06/27 04:22:40;;;;;;;5.57;0.75;;;24.80;1.00;;;;;;4898790;29;20044;-55
2023/06/27 04:25:10;;;;;;;11.70;1.15;;;24.80;1.00;;;;;;4891550;29;20045;-56
2023/06/27 04:27:38;;;;;;;5.72;1.75;;;24.80;1.00;;;;;;4897297;29;20148;-53
2023/06/27 04:30:05;;;;;;;9.23;1.10;;;24.80;1.00;;;;;;4898138;29;20045;-52
2023/06/27 04:32:33;;;;;;;7.93;1.42;;;24.80;1.00;;;;;;4898635;29;20053;-55
2023/06/27 04:35:00;;;;;;;5.40;1.15;;;24.80;1.00;;;;;;4898324;29;20076;-53
2023/06/27 04:37:28;;;;;;;12.15;1.20;;;24.80;1.00;;;;;;4898766;29;20044;-54
2023/06/27 04:39:55;;;;;;;4.18;0.90;;;24.70;1.00;;;;;;4963203;23;20048;-52
2023/06/27 04:42:22;;;;;;;5.30;1.00;;;24.70;1.00;;;;;;4900385;29;20441;-52
2023/06/27 04:44:49;;;;;;;5.57;1.65;;;24.70;1.00;;;;;;4917080;29;20043;-52
2023/06/27 04:47:16;;;;;;;6.78;1.50;;;24.70;1.00;;;;;;4917393;29;20450;-53
2023/06/27 04:49:42;;;;;;;6.07;0.80;;;24.70;1.00;;;;;;4917129;29;20448;-53
2023/06/27 04:52:09;;;;;;;8.38;0.93;;;24.70;1.00;;;;;;4913764;29;20047;-53
2023/06/27 04:54:36;;;;;;;2.97;0.75;;;24.70;1.00;;;;;;4896196;29;20040;-57
2023/06/27 04:57:03;;;;;;;2.67;1.35;;;24.70;1.00;;;;;;4897160;29;20116;-57
2023/06/27 04:59:39;;;;;;;2.00;0.50;;;24.70;1.00;;;;;;4906035;29;20032;-53
2023/06/27 05:02:05;;;;;;;2.40;0.63;;;24.70;1.00;;;;;;4916325;29;20532;-54
2023/06/27 05:04:32;;;;;;;6.82;0.85;;;24.70;1.00;;;;;;4915991;29;20058;-56
2023/06/27 05:07:00;;;;;;;3.63;0.57;;;24.70;1.00;;;;;;4917058;29;20096;-57
2023/06/27 05:09:27;;;;;;;2.95;0.70;;;24.70;1.00;;;;;;4958852;23;20094;-54
2023/06/27 05:11:53;;;;;;;2.78;1.20;;;24.70;1.00;;;;;;4901677;29;20044;-56
2023/06/27 05:14:20;;;;;;;4.22;0.80;;;24.70;1.00;;;;;;4897746;29;20552;-58
2023/06/27 05:16:47;;;;;;;2.47;1.13;;;24.70;1.00;;;;;;4897861;29;20144;-52
2023/06/27 05:19:14;;;;;;;3.03;0.55;;;24.70;1.00;;;;;;4897631;29;20036;-51
2023/06/27 05:21:41;;;;;;;1.65;0.35;;;24.60;1.00;;;;;;4897591;29;20064;-51
2023/06/27 05:24:07;;;;;;;4.40;0.90;;;24.70;1.00;;;;;;4897656;29;20120;-56
2023/06/27 05:26:34;;;;;;;6.15;0.75;;;24.60;1.00;;;;;;4896453;29;20070;-53
2023/06/27 05:29:01;;;;;;;1.13;0.55;;;24.60;1.00;;;;;;4897773;29;20040;-54
2023/06/27 05:31:28;;;;;;;3.08;0.68;;;24.60;1.00;;;;;;4897762;29;20071;-52
2023/06/27 05:33:55;;;;;;;3.42;0.93;;;24.60;1.00;;;;;;4897168;29;20092;-54
2023/06/27 05:36:23;;;;;;;2.33;0.80;;;24.60;1.00;;;;;;4897473;29;20071;-53
2023/06/27 05:38:50;;;;;;;4.03;0.60;;;24.60;1.00;;;;;;4896150;29;20040;-56
2023/06/27 05:41:18;;;;;;;2.88;0.38;;;24.60;1.00;;;;;;4897544;29;20071;-54
2023/06/27 05:43:45;;;;;;;3.20;1.40;;;24.60;1.00;;;;;;4897075;29;20050;-53
2023/06/27 05:46:13;;;;;;;3.85;0.70;;;24.60;1.00;;;;;;4897455;29;20409;-58
2023/06/27 05:48:40;;;;;;;0.90;0.13;;;24.60;1.00;;;;;;4897190;29;20045;-58
2023/06/27 05:51:07;;;;;;;2.22;0.73;;;24.60;1.00;;;;;;4897121;29;20127;-55
2023/06/27 05:53:34;;;;;;;1.45;0.40;;;24.60;1.00;;;;;;4897172;29;20425;-56
2023/06/27 05:56:01;;;;;;;3.72;0.50;;;24.60;1.00;;;;;;4897092;29;20044;-53
2023/06/27 05:58:29;;;;;;;3.33;0.50;;;24.60;1.00;;;;;;4897094;29;20066;-57
2023/06/27 06:00:56;;;;;;;2.45;1.02;;;24.60;1.00;;;;;;4896763;29;20089;-53
2023/06/27 06:03:23;;;;;;;2.15;0.50;;;24.60;1.00;;;;;;4896835;29;20041;-56
2023/06/27 06:05:50;;;;;;;2.38;0.90;;;24.60;1.00;;;;;;4897015;29;20104;-56
2023/06/27 06:08:18;;;;;;;1.55;0.50;;;24.60;1.00;;;;;;4896917;29;20064;-53
2023/06/27 06:10:50;;;;;;;3.13;0.80;;;24.60;1.00;;;;;;5159920;23;20028;31
2023/06/27 06:13:17;;;;;;;4.10;0.88;;;24.60;1.00;;;;;;4854739;29;20060;-55
2023/06/27 06:15:44;;;;;;;5.57;0.63;;;24.60;1.00;;;;;;4859532;29;20041;-58
2023/06/27 06:18:11;;;;;;;4.60;0.65;;;24.60;1.00;;;;;;4859644;29;20034;-53
2023/06/27 06:20:38;;;;;;;2.17;0.50;;;24.60;1.00;;;;;;4864188;29;20570;-56
2023/06/27 06:23:05;;;;;;;3.50;1.30;;;24.60;1.00;;;;;;4877874;29;20041;-55
2023/06/27 06:25:31;;;;;;;2.35;0.57;;;24.60;1.00;;;;;;4878157;29;20390;-56
2023/06/27 06:27:58;;;;;;;2.88;0.73;;;24.60;1.00;;;;;;4861311;29;20059;-56
2023/06/27 06:30:25;;;;;;;1.60;0.57;;;24.60;1.00;;;;;;4877473;29;20505;-55
2023/06/27 06:32:52;;;;;;;3.60;0.50;;;24.60;1.00;;;;;;4877648;29;20131;-54
2023/06/27 06:35:19;;;;;;;1.73;0.50;;;24.60;1.00;;;;;;4877775;29;20516;-53
2023/06/27 06:37:46;;;;;;;5.15;0.85;;;24.60;1.00;;;;;;4877932;29;20043;-52
2023/06/27 06:40:13;;;;;;;4.20;0.75;;;24.60;1.00;;;;;;4877796;29;20041;-57
2023/06/27 06:42:39;;;;;;;0.80;0.50;;;24.60;1.00;;;;;;4877752;29;20080;-52
2023/06/27 06:45:08;;;;;;;1.80;0.50;;;24.60;1.00;;;;;;4942341;23;20049;-54
2023/06/27 06:47:35;;;;;;;1.45;0.85;;;24.60;1.00;;;;;;4896210;29;20074;-55
2023/06/27 06:50:03;;;;;;;3.92;0.68;;;24.70;1.00;;;;;;4888311;29;20032;-57
2023/06/27 06:52:30;;;;;;;4.15;0.82;;;24.70;1.00;;;;;;4877712;29;20041;-55
2023/06/27 06:54:56;;;;;;;2.83;0.70;;;24.70;1.00;;;;;;4877366;29;20052;-53
2023/06/27 06:57:23;;;;;;;1.98;0.40;;;24.60;1.00;;;;;;4877711;29;20048;-56
2023/06/27 06:59:50;;;;;;;2.03;0.70;;;24.60;1.00;;;;;;4877352;29;20494;-56
2023/06/27 07:02:17;;;;;;;3.78;0.70;;;24.70;1.00;;;;;;4877193;29;20056;-54
2023/06/27 07:04:44;;;;;;;2.17;0.40;;;24.70;1.00;;;;;;4877672;29;20418;-52
2023/06/27 07:07:11;;;;;;;2.97;0.30;;;24.70;1.00;;;;;;4877699;29;20060;-54
2023/06/27 07:09:38;;;;;;;2.97;0.82;;;24.70;1.00;;;;;;4877664;29;20501;-56
2023/06/27 07:12:05;;;;;;;2.58;0.60;;;24.70;1.00;;;;;;4877385;29;20101;-51
2023/06/27 07:14:32;;;;;;;1.45;0.63;;;24.70;1.00;;;;;;4876913;29;20069;-60
2023/06/27 07:16:59;;;;;;;3.13;0.52;;;24.70;1.00;;;;;;4873786;29;20477;-54
2023/06/27 07:19:26;;;;;;;1.88;0.43;;;24.70;1.00;;;;;;4877663;29;20048;-53
2023/06/27 07:21:53;;;;;;;2.85;0.40;;;24.70;1.00;;;;;;4877271;29;20497;-56
2023/06/27 07:24:20;;;;;;;2.03;0.70;;;24.70;1.00;;;;;;4877446;29;20041;-54
2023/06/27 07:26:47;;;;;;;3.03;0.90;;;24.70;1.00;;;;;;4877440;29;20049;-54
2023/06/27 07:29:13;;;;;;;2.85;1.23;;;24.70;1.00;;;;;;4877613;29;20056;-54
2023/06/27 07:31:40;;;;;;;4.18;1.05;;;24.70;1.00;;;;;;4877537;29;20120;-53
2023/06/27 07:34:07;;;;;;;1.75;0.70;;;24.70;1.00;;;;;;4877278;29;20063;-56
2023/06/27 07:36:35;;;;;;;2.55;0.63;;;24.70;1.00;;;;;;4877259;29;20051;-57
2023/06/27 07:39:01;;;;;;;5.80;0.65;;;24.70;1.00;;;;;;4877307;29;20045;-56
2023/06/27 07:41:31;;;;;;;2.40;0.88;;;24.70;1.00;;;;;;4879135;29;20133;-55
2023/06/27 07:43:58;;;;;;;2.72;0.90;;;24.70;1.00;;;;;;4880761;29;20068;-53
2023/06/27 07:46:25;;;;;;;5.15;0.80;;;24.70;1.00;;;;;;4880794;29;20120;-55
2023/06/27 07:48:52;;;;;;;3.10;0.90;;;24.70;1.00;;;;;;4864170;29;20045;-52
2023/06/27 07:51:19;;;;;;;3.22;0.90;;;24.70;1.00;;;;;;4880457;29;20119;-57
2023/06/27 07:53:46;;;;;;;2.90;0.65;;;24.70;1.00;;;;;;4880265;29;20044;-54
2023/06/27 07:56:13;;;;;;;2.97;0.60;;;24.70;1.00;;;;;;4880546;29;20504;-55
2023/06/27 07:58:40;;;;;;;1.05;0.55;;;24.70;1.00;;;;;;4881157;29;20044;-53
2023/06/27 08:01:06;;;;;;;2.47;0.40;;;24.70;1.00;;;;;;4869394;29;20076;-58
2023/06/27 08:03:33;;;;;;;2.75;0.60;;;24.70;1.00;;;;;;4880242;29;20493;-54
2023/06/27 08:06:03;;;;;;;3.00;0.50;;;24.70;1.00;;;;;;4880286;29;20501;-59
2023/06/27 08:08:30;;;;;;;2.67;0.40;;;24.70;1.00;;;;;;4880386;29;20076;-55
2023/06/27 08:10:57;;;;;;;1.35;0.50;;;24.70;1.00;;;;;;4880099;29;20049;-54
2023/06/27 08:13:24;;;;;;;2.38;0.40;;;24.70;1.00;;;;;;4880007;29;20076;-54
2023/06/27 08:15:51;;;;;;;2.38;0.85;;;24.70;1.00;;;;;;4976742;23;20051;-56
2023/06/27 08:18:18;;;;;;;2.17;0.77;;;24.70;1.00;;;;;;4936681;29;20040;-55
2023/06/27 08:20:45;;;;;;;2.65;0.50;;;24.70;1.00;;;;;;4930597;29;20044;-53
2023/06/27 08:23:12;;;;;;;2.72;0.60;;;24.70;1.00;;;;;;4917464;29;20052;-55
2023/06/27 08:25:39;;;;;;;2.50;0.80;;;24.70;1.00;;;;;;4917853;29;20342;-54
2023/06/27 08:28:06;;;;;;;1.38;0.40;;;24.70;1.00;;;;;;4917836;29;20071;-53
2023/06/27 08:30:33;;;;;;;3.25;1.15;;;24.70;1.00;;;;;;4917434;29;20122;-57
2023/06/27 08:33:00;;;;;;;3.22;1.15;;;24.70;1.00;;;;;;4917338;29;20475;-54
2023/06/27 08:35:27;;;;;;;5.32;1.25;;;24.70;1.00;;;;;;4917435;29;20040;-52
2023/06/27 08:37:56;;;;;;;2.72;0.77;;;24.70;1.00;;;;;;4917453;29;20119;-57
2023/06/27 08:40:26;;;;;;;0.95;0.38;;;24.70;1.00;;;;;;4917327;29;20051;-57
2023/06/27 08:42:53;;;;;;;1.50;0.85;;;24.70;1.00;;;;;;4917208;29;20120;-55
2023/06/27 08:48:18;;;;;;;2.60;1.02;;;24.70;1.00;;;;;;4866905;29;20056;-55
2023/06/27 08:50:45;;;;;;;2.80;1.15;;;24.70;1.00;;;;;;4879523;29;20045;-55
2023/06/27 08:53:14;;;;;;;1.73;0.60;;;24.70;1.00;;;;;;4878982;29;20049;-55
2023/06/27 08:55:51;;;;;;;5.13;1.02;;;24.80;1.00;;;;;;4879333;29;20056;-55
2023/06/27 08:58:24;;;;;;;4.18;0.68;;;24.70;1.00;;;;;;4879665;29;20481;-57
2023/06/27 09:00:53;;;;;;;2.35;0.73;;;24.70;1.00;;;;;;4879413;29;20041;-57
2023/06/27 09:03:20;;;;;;;3.03;1.00;;;24.70;1.00;;;;;;4879340;29;20044;-56
2023/06/27 09:05:48;;;;;;;1.20;0.55;;;24.80;1.00;;;;;;4879484;29;20055;-55
2023/06/27 09:08:15;;;;;;;3.25;0.73;;;24.70;1.00;;;;;;4879320;29;20140;-55
2023/06/27 09:10:43;;;;;;;0.70;0.20;;;24.70;1.00;;;;;;4879332;29;20051;-57
2023/06/27 09:13:11;;;;;;;2.38;0.88;;;24.70;1.00;;;;;;4861096;29;20120;-56
2023/06/27 09:15:38;;;;;;;2.92;1.10;;;24.80;1.00;;;;;;4876244;29;20045;-55
2023/06/27 09:18:05;;;;;;;2.35;0.50;;;24.80;1.00;;;;;;4958134;23;20052;-55
2023/06/27 09:20:32;;;;;;;1.90;0.93;;;24.80;1.00;;;;;;4913416;29;20056;-55
2023/06/27 09:23:05;;;;;;;4.03;1.27;;;24.80;1.00;;;;;;4931028;29;20486;-55
2023/06/27 09:25:32;;;;;;;3.35;0.57;;;24.80;1.00;;;;;;4935575;29;20040;-58
2023/06/27 09:28:17;;;;;;;1.67;0.60;;;24.70;1.00;;;;;;4935645;29;20067;-56
2023/06/27 09:30:57;;;;;;;5.93;0.95;;;24.80;1.00;;;;;;4935615;29;20048;-56
2023/06/27 09:33:25;;;;;;;2.75;0.60;;;24.80;1.00;;;;;;4935262;29;20090;-58
2023/06/27 09:35:53;;;;;;;1.42;0.30;;;24.70;1.00;;;;;;4935300;29;20118;-54
2023/06/27 09:38:23;;;;;;;1.65;0.50;;;24.80;1.00;;;;;;4935487;29;20519;-56
2023/06/27 09:41:08;;;;;;;2.38;0.55;;;24.70;1.00;;;;;;4918512;29;20384;-54
2023/06/27 09:43:35;;;;;;;3.40;0.93;;;24.80;1.00;;;;;;4935045;29;20122;-57
2023/06/27 09:46:06;;;;;;;2.95;0.68;;;24.70;1.00;;;;;;4935174;29;20044;-58
2023/06/27 09:48:35;;;;;;;1.60;0.70;;;24.80;1.00;;;;;;4935754;29;20073;-58
2023/06/27 09:51:03;;;;;;;2.50;0.60;;;24.70;1.00;;;;;;4934964;29;20119;-56
2023/06/27 09:53:31;;;;;;;4.13;0.77;;;24.80;1.00;;;;;;4935199;29;20492;-54
2023/06/27 09:56:00;;;;;;;3.15;1.23;;;24.70;1.00;;;;;;4934959;29;20456;-56
2023/06/27 09:58:27;;;;;;;3.03;0.50;;;24.70;1.00;;;;;;4935008;29;20114;-53
2023/06/27 10:01:03;;;;;;;4.22;0.90;;;24.80;1.00;;;;;;4934780;29;20055;-55
2023/06/27 10:03:34;;;;;;;2.58;0.68;;;24.70;1.00;;;;;;4934765;29;20114;-54
2023/06/27 10:06:02;;;;;;;3.75;0.43;;;24.80;1.00;;;;;;4934869;29;20352;-56
2023/06/27 10:08:38;;;;;;;2.38;0.40;;;24.80;1.00;;;;;;4934928;29;20078;-55
2023/06/27 10:11:05;;;;;;;1.88;0.47;;;24.80;1.00;;;;;;4934604;29;20059;-56
2023/06/27 10:13:36;;;;;;;2.38;0.77;;;24.70;1.00;;;;;;4934513;29;20109;-58
2023/06/27 10:16:04;;;;;;;3.40;1.17;;;24.80;1.00;;;;;;4934470;29;20051;-56
2023/06/27 10:18:31;;;;;;;2.58;0.55;;;24.80;1.00;;;;;;5392296;23;20057;-59
2023/06/27 10:20:58;;;;;;;1.92;0.90;;;24.80;1.00;;;;;;4877664;29;20112;-57
2023/06/27 10:23:25;;;;;;;2.47;0.73;;;24.80;1.00;;;;;;4877734;29;20413;-59
2023/06/27 10:25:53;;;;;;;1.42;0.80;;;24.80;1.00;;;;;;4878168;29;20040;-57
2023/06/27 10:28:20;;;;;;;3.40;0.95;;;24.70;1.00;;;;;;4878156;29;20484;-57
2023/06/27 10:30:47;;;;;;;3.00;0.65;;;24.80;1.00;;;;;;4877765;29;20077;-58
2023/06/27 10:33:28;;;;;;;1.20;0.60;;;24.80;1.00;;;;;;4877732;29;20037;-58
2023/06/27 10:36:05;;;;;;;3.85;0.70;;;24.80;1.00;;;;;;4877763;29;20045;-56
2023/06/27 10:38:37;;;;;;;2.97;0.55;;;24.70;1.00;;;;;;4861671;29;20045;-57
2023/06/27 10:41:09;;;;;;;5.25;1.20;;;24.80;1.00;;;;;;4877811;29;20525;-56
2023/06/27 10:43:45;;;;;;;2.08;0.80;;;24.70;1.00;;;;;;4864613;29;20432;-55
2023/06/27 10:46:19;;;;;;;3.80;0.95;;;24.80;1.00;;;;;;4859135;29;20045;-58
2023/06/27 10:48:49;;;;;;;1.77;0.50;;;24.80;1.00;;;;;;4859412;29;20056;-57
2023/06/27 10:51:20;;;;;;;2.03;0.70;;;24.70;1.00;;;;;;4947131;24;20131;-56
2023/06/27 10:54:11;;;;;;;2.65;0.77;;;24.80;1.00;;;;;;4894969;29;20496;-57
2023/06/27 10:56:40;;;;;;;5.18;0.60;;;24.80;1.00;;;;;;4884917;29;20057;-54
2023/06/27 10:59:15;;;;;;;4.53;0.88;;;24.70;1.00;;;;;;4896424;29;20397;-52
2023/06/27 11:01:53;;;;;;;2.08;0.90;;;24.70;1.00;;;;;;4896420;29;20045;-55
2023/06/27 11:04:25;;;;;;;1.80;0.57;;;24.80;1.00;;;;;;4896455;29;20056;-57
2023/06/27 11:07:00;;;;;;;4.68;1.13;;;24.80;1.00;;;;;;4896489;29;20453;-56
2023/06/27 11:09:31;;;;;;;2.20;0.85;;;24.70;1.00;;;;;;4896432;29;20052;-52
2023/06/27 11:12:14;;;;;;;1.58;0.60;;;24.70;1.00;;;;;;4896497;29;20096;-55
2023/06/27 11:14:45;;;;;;;2.65;1.15;;;24.70;1.00;;;;;;4896348;29;20055;-53
2023/06/27 11:17:13;;;;;;;2.42;0.80;;;24.80;1.00;;;;;;4900055;29;20518;-55
2023/06/27 11:19:42;;;;;;;3.67;0.75;;;24.80;1.00;;;;;;4900402;29;20051;-53
2023/06/27 11:22:10;;;;;;;2.50;0.70;;;24.80;1.00;;;;;;5169944;23;20401;-53
2023/06/27 11:24:39;;;;;;;2.85;1.02;;;24.80;1.00;;;;;;4862818;29;20484;-50
2023/06/27 11:27:07;;;;;;;2.88;0.80;;;24.70;1.00;;;;;;4879410;29;20128;-57
2023/06/27 11:29:35;;;;;;;3.30;0.93;;;24.80;1.00;;;;;;4892759;29;20072;-53
2023/06/27 11:32:02;;;;;;;4.28;0.75;;;24.80;1.00;;;;;;4884503;29;20123;-51
2023/06/27 11:34:29;;;;;;;2.47;0.80;;;24.80;1.00;;;;;;4881433;29;20095;-52
2023/06/27 11:36:56;;;;;;;4.75;0.73;;;24.80;1.00;;;;;;4881487;29;20120;-53
2023/06/27 11:39:23;;;;;;;4.00;1.33;;;24.70;1.00;;;;;;4882299;29;20116;-57
2023/06/27 11:41:53;;;;;;;4.35;0.70;;;24.80;1.00;;;;;;4883303;29;20493;-56
2023/06/27 11:44:20;;;;;;;3.25;0.70;;;24.80;1.00;;;;;;4883187;29;20037;-58
2023/06/27 11:46:52;;;;;;;2.13;0.73;;;24.80;1.00;;;;;;4884596;29;20131;-54
2023/06/27 11:49:23;;;;;;;4.03;1.02;;;24.80;1.00;;;;;;4884128;29;20513;-57
2023/06/27 11:51:51;;;;;;;1.98;0.85;;;24.80;1.00;;;;;;4884566;29;20077;-58
2023/06/27 11:54:19;;;;;;;3.33;1.42;;;24.70;1.00;;;;;;5080875;23;20052;-55
2023/06/27 11:56:46;;;;;;;5.00;0.60;;;24.80;1.00;;;;;;4920802;29;20116;-54
2023/06/27 11:59:14;;;;;;;2.00;0.75;;;24.80;1.00;;;;;;4920967;29;20048;-57
2023/06/27 12:01:42;;;;;;;1.58;0.50;;;24.80;1.00;;;;;;4907423;29;20059;-56
2023/06/27 12:04:14;;;;;;;5.72;1.05;;;24.80;1.00;;;;;;4900676;29;20040;-51
2023/06/27 12:06:43;;;;;;;1.63;1.13;;;24.80;1.00;;;;;;4901854;29;20509;-56
2023/06/27 12:09:22;;;;;;;2.97;0.60;;;24.80;1.00;;;;;;4900509;29;20465;-55
2023/06/27 12:11:54;;;;;;;2.20;0.60;;;24.80;1.00;;;;;;4899897;29;20049;-58
2023/06/27 12:14:22;;;;;;;5.55;1.15;;;24.70;1.00;;;;;;4903648;29;20040;-54
2023/06/27 12:16:49;;;;;;;2.05;0.43;;;24.80;1.00;;;;;;4904514;29;20060;-52
2023/06/27 12:19:19;;;;;;;2.78;0.90;;;24.80;1.00;;;;;;4903624;29;20092;-52
2023/06/27 12:21:47;;;;;;;4.00;0.70;;;24.80;1.00;;;;;;4903464;29;20492;-52
2023/06/27 12:24:14;;;;;;;3.40;0.85;;;24.80;1.00;;;;;;4927666;23;20112;-55
2023/06/27 12:26:41;;;;;;;2.03;0.55;;;24.70;1.00;;;;;;4894295;29;20075;-57
2023/06/27 12:29:08;;;;;;;3.55;0.60;;;24.80;1.00;;;;;;4899699;29;20041;-55
2023/06/27 12:31:37;;;;;;;2.60;0.77;;;24.70;1.00;;;;;;4890507;29;20069;-56
2023/06/27 12:34:04;;;;;;;3.72;1.00;;;24.80;1.00;;;;;;4900831;29;20123;-51
2023/06/27 12:36:32;;;;;;;1.58;0.90;;;24.80;1.00;;;;;;4901554;29;20072;-58
2023/06/27 12:39:00;;;;;;;2.42;0.70;;;24.80;1.00;;;;;;4899315;29;20045;-56
2023/06/27 12:41:28;;;;;;;2.33;0.70;;;24.80;1.00;;;;;;4881776;29;20045;-52
2023/06/27 12:43:56;;;;;;;2.90;0.93;;;24.80;1.00;;;;;;4898421;29;20048;-54
2023/06/27 12:46:23;;;;;;;3.05;1.23;;;24.80;1.00;;;;;;4898733;29;20040;-55
2023/06/27 12:48:50;;;;;;;3.10;1.48;;;24.80;1.00;;;;;;4894440;29;20049;-57
2023/06/27 12:51:16;;;;;;;2.92;0.63;;;24.80;1.00;;;;;;4898562;29;20087;-57
2023/06/27 12:53:47;;;;;;;2.55;0.93;;;24.80;1.00;;;;;;4898642;29;20048;-59
2023/06/27 12:56:15;;;;;;;7.45;1.17;;;24.80;1.00;;;;;;5013611;23;20060;-57
2023/06/27 12:58:45;;;;;;;2.80;0.82;;;24.80;1.00;;;;;;4896493;29;20045;-58
2023/06/27 13:01:12;;;;;;;5.47;0.88;;;24.80;1.00;;;;;;4893890;29;20033;-55
2023/06/27 13:03:39;;;;;;;4.47;1.05;;;24.80;1.00;;;;;;4892428;29;20049;-52
2023/06/27 13:06:06;;;;;;;4.15;0.95;;;24.80;1.00;;;;;;4879900;29;20120;-55
2023/06/27 13:08:33;;;;;;;7.28;1.55;;;24.80;1.00;;;;;;4889917;29;20516;-55